sensor_id;sensor_type;location;lat;lon;timestamp;temperature;humidity
46037;DHT22;31769;49.304;8.428;2024-01-30T00:01:42;4.80;99.90
46037;DHT22;31769;49.304;8.428;2024-01-30T00:04:42;4.80;99.90
46037;DHT22;31769;49.304;8.428;2024-01-30T00:07:43;4.80;99.90
46037;DHT22;31769;49.304;8.428;2024-01-30T00:10:44;4.80;99.90
46037;DHT22;31769;49.304;8.428;2024-01-30T00:13:44;4.80;99.90
46037;DHT22;31769;49.304;8.428;2024-01-30T00:16:45;4.80;99.90
46037;DHT22;31769;49.304;8.428;2024-01-30T00:19:46;4.80;99.90
46037;DHT22;31769;49.304;8.428;2024-01-30T00:22:46;4.80;99.90
46037;DHT22;31769;49.304;8.428;2024-01-30T00:25:47;4.80;99.90
46037;DHT22;31769;49.304;8.428;2024-01-30T00:28:48;4.70;99.90
46037;DHT22;31769;49.304;8.428;2024-01-30T00:31:48;4.70;99.90
46037;DHT22;31769;49.304;8.428;2024-01-30T00:34:49;4.60;99.90
46037;DHT22;31769;49.304;8.428;2024-01-30T00:37:50;4.50;99.90
46037;DHT22;31769;49.304;8.428;2024-01-30T00:40:50;4.40;99.90
46037;DHT22;31769;49.304;8.428;2024-01-30T00:43:51;4.30;99.90
46037;DHT22;31769;49.304;8.428;2024-01-30T00:46:52;4.10;99.90
46037;DHT22;31769;49.304;8.428;2024-01-30T00:49:52;4.00;99.90
46037;DHT22;31769;49.304;8.428;2024-01-30T00:52:53;4.00;99.90
46037;DHT22;31769;49.304;8.428;2024-01-30T00:55:54;3.90;99.90
46037;DHT22;31769;49.304;8.428;2024-01-30T00:58:54;3.90;99.90
46037;DHT22;31769;49.304;8.428;2024-01-30T01:01:56;4.00;99.90
46037;DHT22;31769;49.304;8.428;2024-01-30T01:04:56;4.10;99.90
46037;DHT22;31769;49.304;8.428;2024-01-30T01:07:57;4.20;99.90
46037;DHT22;31769;49.304;8.428;2024-01-30T01:10:58;4.30;99.90
46037;DHT22;31769;49.304;8.428;2024-01-30T01:13:59;4.40;99.90
46037;DHT22;31769;49.304;8.428;2024-01-30T01:16:59;4.40;99.90
46037;DHT22;31769;49.304;8.428;2024-01-30T01:20:00;4.50;99.90
46037;DHT22;31769;49.304;8.428;2024-01-30T01:23:01;4.50;99.90
46037;DHT22;31769;49.304;8.428;2024-01-30T01:26:01;4.40;99.90
46037;DHT22;31769;49.304;8.428;2024-01-30T01:29:02;4.40;99.90
46037;DHT22;31769;49.304;8.428;2024-01-30T01:32:10;4.40;99.90
46037;DHT22;31769;49.304;8.428;2024-01-30T01:35:10;4.40;99.90
46037;DHT22;31769;49.304;8.428;2024-01-30T01:38:11;4.30;99.90
46037;DHT22;31769;49.304;8.428;2024-01-30T01:41:12;4.40;99.90
46037;DHT22;31769;49.304;8.428;2024-01-30T01:44:12;4.40;99.90
46037;DHT22;31769;49.304;8.428;2024-01-30T01:47:14;4.40;99.90
46037;DHT22;31769;49.304;8.428;2024-01-30T01:50:16;4.40;99.90
46037;DHT22;31769;49.304;8.428;2024-01-30T01:53:20;4.50;99.90
46037;DHT22;31769;49.304;8.428;2024-01-30T01:56:22;4.50;99.90
46037;DHT22;31769;49.304;8.428;2024-01-30T01:59:24;4.50;99.90
46037;DHT22;31769;49.304;8.428;2024-01-30T02:02:26;4.50;99.90
46037;DHT22;31769;49.304;8.428;2024-01-30T02:05:30;4.50;99.90
46037;DHT22;31769;49.304;8.428;2024-01-30T02:08:32;4.50;99.90
46037;DHT22;31769;49.304;8.428;2024-01-30T02:11:33;4.50;99.90
46037;DHT22;31769;49.304;8.428;2024-01-30T02:14:44;4.40;99.90
46037;DHT22;31769;49.304;8.428;2024-01-30T02:17:45;4.40;99.90
46037;DHT22;31769;49.304;8.428;2024-01-30T02:20:46;4.40;99.90
46037;DHT22;31769;49.304;8.428;2024-01-30T02:23:47;4.40;99.90
46037;DHT22;31769;49.304;8.428;2024-01-30T02:26:48;4.40;99.90
46037;DHT22;31769;49.304;8.428;2024-01-30T02:29:49;4.40;99.90
46037;DHT22;31769;49.304;8.428;2024-01-30T02:32:50;4.40;99.90
46037;DHT22;31769;49.304;8.428;2024-01-30T02:35:50;4.40;99.90
46037;DHT22;31769;49.304;8.428;2024-01-30T02:38:51;4.30;99.90
46037;DHT22;31769;49.304;8.428;2024-01-30T02:41:51;4.30;99.90
46037;DHT22;31769;49.304;8.428;2024-01-30T02:44:52;4.40;99.90
46037;DHT22;31769;49.304;8.428;2024-01-30T02:47:53;4.40;99.90
46037;DHT22;31769;49.304;8.428;2024-01-30T02:50:53;4.40;99.90
46037;DHT22;31769;49.304;8.428;2024-01-30T02:53:54;4.40;99.90
46037;DHT22;31769;49.304;8.428;2024-01-30T02:56:55;4.40;99.90
46037;DHT22;31769;49.304;8.428;2024-01-30T02:59:55;4.40;99.90
46037;DHT22;31769;49.304;8.428;2024-01-30T03:02:56;4.40;99.90
46037;DHT22;31769;49.304;8.428;2024-01-30T03:05:57;4.40;99.90
46037;DHT22;31769;49.304;8.428;2024-01-30T03:08:57;4.30;99.90
46037;DHT22;31769;49.304;8.428;2024-01-30T03:11:58;4.40;99.90
46037;DHT22;31769;49.304;8.428;2024-01-30T03:14:59;4.30;99.90
46037;DHT22;31769;49.304;8.428;2024-01-30T03:17:59;4.30;99.90
46037;DHT22;31769;49.304;8.428;2024-01-30T03:21:00;4.30;99.90
46037;DHT22;31769;49.304;8.428;2024-01-30T03:24:01;4.30;99.90
46037;DHT22;31769;49.304;8.428;2024-01-30T03:27:02;4.30;99.90
46037;DHT22;31769;49.304;8.428;2024-01-30T03:30:03;4.30;99.90
46037;DHT22;31769;49.304;8.428;2024-01-30T03:33:04;4.30;99.90
46037;DHT22;31769;49.304;8.428;2024-01-30T03:36:05;4.30;99.90
46037;DHT22;31769;49.304;8.428;2024-01-30T03:39:06;4.20;99.90
46037;DHT22;31769;49.304;8.428;2024-01-30T03:42:06;4.20;99.90
46037;DHT22;31769;49.304;8.428;2024-01-30T03:45:08;4.20;99.90
46037;DHT22;31769;49.304;8.428;2024-01-30T03:48:08;4.20;99.90
46037;DHT22;31769;49.304;8.428;2024-01-30T03:51:09;4.20;99.90
46037;DHT22;31769;49.304;8.428;2024-01-30T03:54:15;4.20;99.90
46037;DHT22;31769;49.304;8.428;2024-01-30T03:57:15;4.20;99.90
46037;DHT22;31769;49.304;8.428;2024-01-30T04:00:16;4.20;99.90
46037;DHT22;31769;49.304;8.428;2024-01-30T04:03:17;4.10;99.90
46037;DHT22;31769;49.304;8.428;2024-01-30T04:06:18;4.20;99.90
46037;DHT22;31769;49.304;8.428;2024-01-30T04:09:18;4.10;99.90
46037;DHT22;31769;49.304;8.428;2024-01-30T04:12:19;4.00;99.90
46037;DHT22;31769;49.304;8.428;2024-01-30T04:15:20;4.00;99.90
46037;DHT22;31769;49.304;8.428;2024-01-30T04:18:20;4.00;99.90
46037;DHT22;31769;49.304;8.428;2024-01-30T04:21:22;3.90;99.90
46037;DHT22;31769;49.304;8.428;2024-01-30T04:24:22;4.00;99.90
46037;DHT22;31769;49.304;8.428;2024-01-30T04:27:23;3.90;99.90
46037;DHT22;31769;49.304;8.428;2024-01-30T04:30:24;3.90;99.90
46037;DHT22;31769;49.304;8.428;2024-01-30T04:33:24;3.90;99.90
46037;DHT22;31769;49.304;8.428;2024-01-30T04:36:25;3.90;99.90
46037;DHT22;31769;49.304;8.428;2024-01-30T04:39:26;3.80;99.90
46037;DHT22;31769;49.304;8.428;2024-01-30T04:42:26;3.80;99.90
46037;DHT22;31769;49.304;8.428;2024-01-30T04:45:27;3.80;99.90
46037;DHT22;31769;49.304;8.428;2024-01-30T04:48:28;3.80;99.90
46037;DHT22;31769;49.304;8.428;2024-01-30T04:51:28;3.80;99.90
46037;DHT22;31769;49.304;8.428;2024-01-30T04:54:30;3.80;99.90
46037;DHT22;31769;49.304;8.428;2024-01-30T04:57:31;3.80;99.90
46037;DHT22;31769;49.304;8.428;2024-01-30T05:00:33;3.80;99.90
46037;DHT22;31769;49.304;8.428;2024-01-30T05:03:34;3.80;99.90
46037;DHT22;31769;49.304;8.428;2024-01-30T05:06:35;3.90;99.90
46037;DHT22;31769;49.304;8.428;2024-01-30T05:09:36;3.90;99.90
46037;DHT22;31769;49.304;8.428;2024-01-30T05:12:38;3.90;99.90
46037;DHT22;31769;49.304;8.428;2024-01-30T05:15:38;3.90;99.90
46037;DHT22;31769;49.304;8.428;2024-01-30T05:18:39;3.90;99.90
46037;DHT22;31769;49.304;8.428;2024-01-30T05:21:41;3.90;99.90
46037;DHT22;31769;49.304;8.428;2024-01-30T05:24:42;3.90;99.90
46037;DHT22;31769;49.304;8.428;2024-01-30T05:27:43;3.80;99.90
46037;DHT22;31769;49.304;8.428;2024-01-30T05:30:43;3.90;99.90
46037;DHT22;31769;49.304;8.428;2024-01-30T05:33:44;3.90;99.90
46037;DHT22;31769;49.304;8.428;2024-01-30T05:36:45;4.00;99.90
46037;DHT22;31769;49.304;8.428;2024-01-30T05:39:45;4.00;99.90
46037;DHT22;31769;49.304;8.428;2024-01-30T05:42:46;4.10;99.90
46037;DHT22;31769;49.304;8.428;2024-01-30T05:45:47;4.00;99.90
46037;DHT22;31769;49.304;8.428;2024-01-30T05:48:47;4.00;99.90
46037;DHT22;31769;49.304;8.428;2024-01-30T05:51:48;4.00;99.90
46037;DHT22;31769;49.304;8.428;2024-01-30T05:54:49;3.90;99.90
46037;DHT22;31769;49.304;8.428;2024-01-30T06:12:57;3.80;99.90
46037;DHT22;31769;49.304;8.428;2024-01-30T06:15:57;3.80;99.90
46037;DHT22;31769;49.304;8.428;2024-01-30T06:18:58;3.80;99.90
46037;DHT22;31769;49.304;8.428;2024-01-30T06:22:00;3.70;99.90
46037;DHT22;31769;49.304;8.428;2024-01-30T06:25:04;3.60;99.90
46037;DHT22;31769;49.304;8.428;2024-01-30T06:28:05;3.60;99.90
46037;DHT22;31769;49.304;8.428;2024-01-30T06:31:06;3.60;99.90
46037;DHT22;31769;49.304;8.428;2024-01-30T06:34:07;3.50;99.90
46037;DHT22;31769;49.304;8.428;2024-01-30T06:37:07;3.50;99.90
46037;DHT22;31769;49.304;8.428;2024-01-30T06:40:08;3.50;99.90
46037;DHT22;31769;49.304;8.428;2024-01-30T06:43:09;3.50;99.90
46037;DHT22;31769;49.304;8.428;2024-01-30T06:46:10;3.40;99.90
46037;DHT22;31769;49.304;8.428;2024-01-30T06:49:11;3.40;99.90
46037;DHT22;31769;49.304;8.428;2024-01-30T06:52:11;3.40;99.90
46037;DHT22;31769;49.304;8.428;2024-01-30T06:55:12;3.40;99.90
46037;DHT22;31769;49.304;8.428;2024-01-30T06:58:12;3.40;99.90
46037;DHT22;31769;49.304;8.428;2024-01-30T07:01:13;3.40;99.90
46037;DHT22;31769;49.304;8.428;2024-01-30T07:04:14;3.40;99.90
46037;DHT22;31769;49.304;8.428;2024-01-30T07:07:15;3.50;99.90
46037;DHT22;31769;49.304;8.428;2024-01-30T07:10:15;3.50;99.90
46037;DHT22;31769;49.304;8.428;2024-01-30T07:13:16;3.50;99.90
46037;DHT22;31769;49.304;8.428;2024-01-30T07:16:17;3.50;99.90
46037;DHT22;31769;49.304;8.428;2024-01-30T07:19:17;3.50;99.90
46037;DHT22;31769;49.304;8.428;2024-01-30T07:22:18;3.60;99.90
46037;DHT22;31769;49.304;8.428;2024-01-30T07:25:19;3.60;99.90
46037;DHT22;31769;49.304;8.428;2024-01-30T07:28:19;3.60;99.90
46037;DHT22;31769;49.304;8.428;2024-01-30T07:31:20;3.60;99.90
46037;DHT22;31769;49.304;8.428;2024-01-30T07:34:23;3.60;99.90
46037;DHT22;31769;49.304;8.428;2024-01-30T07:37:24;3.60;99.90
46037;DHT22;31769;49.304;8.428;2024-01-30T07:40:24;3.60;99.90
46037;DHT22;31769;49.304;8.428;2024-01-30T07:43:25;3.70;99.90
46037;DHT22;31769;49.304;8.428;2024-01-30T07:46:26;3.70;99.90
46037;DHT22;31769;49.304;8.428;2024-01-30T07:49:27;3.80;99.90
46037;DHT22;31769;49.304;8.428;2024-01-30T07:52:28;3.80;99.90
46037;DHT22;31769;49.304;8.428;2024-01-30T07:55:29;3.90;99.90
46037;DHT22;31769;49.304;8.428;2024-01-30T08:02:47;4.00;99.90
46037;DHT22;31769;49.304;8.428;2024-01-30T08:05:48;4.00;99.90
46037;DHT22;31769;49.304;8.428;2024-01-30T08:08:49;4.00;99.90
46037;DHT22;31769;49.304;8.428;2024-01-30T08:11:50;4.00;99.90
46037;DHT22;31769;49.304;8.428;2024-01-30T08:14:51;4.00;99.90
46037;DHT22;31769;49.304;8.428;2024-01-30T08:17:52;4.00;99.90
46037;DHT22;31769;49.304;8.428;2024-01-30T08:20:58;4.00;99.90
46037;DHT22;31769;49.304;8.428;2024-01-30T08:23:58;4.10;99.90
46037;DHT22;31769;49.304;8.428;2024-01-30T08:27:00;4.20;99.90
46037;DHT22;31769;49.304;8.428;2024-01-30T08:30:03;4.30;99.90
46037;DHT22;31769;49.304;8.428;2024-01-30T08:33:04;4.40;99.90
46037;DHT22;31769;49.304;8.428;2024-01-30T08:36:05;4.60;99.90
46037;DHT22;31769;49.304;8.428;2024-01-30T08:39:05;4.60;99.90
46037;DHT22;31769;49.304;8.428;2024-01-30T08:42:06;4.70;99.90
46037;DHT22;31769;49.304;8.428;2024-01-30T08:45:08;4.90;99.90
46037;DHT22;31769;49.304;8.428;2024-01-30T08:48:09;4.90;99.90
46037;DHT22;31769;49.304;8.428;2024-01-30T08:51:10;5.00;99.90
46037;DHT22;31769;49.304;8.428;2024-01-30T08:54:11;5.00;99.90
46037;DHT22;31769;49.304;8.428;2024-01-30T08:57:12;5.00;99.90
46037;DHT22;31769;49.304;8.428;2024-01-30T09:00:13;5.20;99.90
46037;DHT22;31769;49.304;8.428;2024-01-30T09:03:17;5.30;99.90
46037;DHT22;31769;49.304;8.428;2024-01-30T09:06:20;5.40;99.90
46037;DHT22;31769;49.304;8.428;2024-01-30T09:09:21;5.60;99.90
46037;DHT22;31769;49.304;8.428;2024-01-30T09:12:22;5.70;99.90
46037;DHT22;31769;49.304;8.428;2024-01-30T09:15:22;5.80;99.90
46037;DHT22;31769;49.304;8.428;2024-01-30T09:18:23;6.00;99.90
46037;DHT22;31769;49.304;8.428;2024-01-30T09:21:24;6.10;99.90
46037;DHT22;31769;49.304;8.428;2024-01-30T09:24:26;6.20;99.90
46037;DHT22;31769;49.304;8.428;2024-01-30T09:27:27;6.40;99.90
46037;DHT22;31769;49.304;8.428;2024-01-30T09:30:27;6.30;99.90
46037;DHT22;31769;49.304;8.428;2024-01-30T09:33:28;6.40;99.90
46037;DHT22;31769;49.304;8.428;2024-01-30T09:36:29;6.50;99.90
46037;DHT22;31769;49.304;8.428;2024-01-30T09:39:30;6.50;99.90
46037;DHT22;31769;49.304;8.428;2024-01-30T09:42:35;6.70;99.90
46037;DHT22;31769;49.304;8.428;2024-01-30T09:45:36;7.00;99.90
46037;DHT22;31769;49.304;8.428;2024-01-30T09:48:38;7.10;99.90
46037;DHT22;31769;49.304;8.428;2024-01-30T09:51:39;7.40;99.90
46037;DHT22;31769;49.304;8.428;2024-01-30T09:54:40;7.50;99.90
46037;DHT22;31769;49.304;8.428;2024-01-30T09:57:43;7.70;99.90
46037;DHT22;31769;49.304;8.428;2024-01-30T10:00:43;7.80;99.90
46037;DHT22;31769;49.304;8.428;2024-01-30T10:03:44;7.80;99.90
46037;DHT22;31769;49.304;8.428;2024-01-30T10:06:46;8.00;99.90
46037;DHT22;31769;49.304;8.428;2024-01-30T10:09:47;8.00;99.90
46037;DHT22;31769;49.304;8.428;2024-01-30T10:12:49;8.10;99.90
46037;DHT22;31769;49.304;8.428;2024-01-30T10:15:50;8.10;99.90
46037;DHT22;31769;49.304;8.428;2024-01-30T10:18:52;8.20;99.90
46037;DHT22;31769;49.304;8.428;2024-01-30T10:21:52;8.20;99.90
46037;DHT22;31769;49.304;8.428;2024-01-30T10:24:53;8.40;99.90
46037;DHT22;31769;49.304;8.428;2024-01-30T10:27:54;8.00;99.90
46037;DHT22;31769;49.304;8.428;2024-01-30T10:30:59;7.90;99.90
46037;DHT22;31769;49.304;8.428;2024-01-30T10:34:00;8.00;99.90
46037;DHT22;31769;49.304;8.428;2024-01-30T10:37:07;7.90;99.90
46037;DHT22;31769;49.304;8.428;2024-01-30T10:40:13;8.10;99.90
46037;DHT22;31769;49.304;8.428;2024-01-30T10:43:15;8.30;99.90
46037;DHT22;31769;49.304;8.428;2024-01-30T10:46:19;8.40;99.90
46037;DHT22;31769;49.304;8.428;2024-01-30T10:49:21;8.40;99.90
46037;DHT22;31769;49.304;8.428;2024-01-30T10:52:23;8.40;99.90
46037;DHT22;31769;49.304;8.428;2024-01-30T10:55:27;8.40;99.90
46037;DHT22;31769;49.304;8.428;2024-01-30T10:58:29;8.30;99.90
46037;DHT22;31769;49.304;8.428;2024-01-30T11:01:30;8.40;99.90
46037;DHT22;31769;49.304;8.428;2024-01-30T11:04:37;8.50;99.90
46037;DHT22;31769;49.304;8.428;2024-01-30T11:07:39;8.50;99.90
46037;DHT22;31769;49.304;8.428;2024-01-30T11:10:49;8.60;99.90
46037;DHT22;31769;49.304;8.428;2024-01-30T11:13:50;9.00;99.90
46037;DHT22;31769;49.304;8.428;2024-01-30T11:16:51;9.30;99.90
46037;DHT22;31769;49.304;8.428;2024-01-30T11:19:52;9.40;99.90
46037;DHT22;31769;49.304;8.428;2024-01-30T11:22:54;9.40;99.90
46037;DHT22;31769;49.304;8.428;2024-01-30T11:25:56;9.50;99.90
46037;DHT22;31769;49.304;8.428;2024-01-30T11:28:57;9.70;99.90
46037;DHT22;31769;49.304;8.428;2024-01-30T11:31:58;10.00;99.90
46037;DHT22;31769;49.304;8.428;2024-01-30T11:34:59;10.00;99.90
46037;DHT22;31769;49.304;8.428;2024-01-30T11:38:00;10.20;99.90
46037;DHT22;31769;49.304;8.428;2024-01-30T11:41:02;10.00;99.90
46037;DHT22;31769;49.304;8.428;2024-01-30T11:44:04;9.90;99.90
46037;DHT22;31769;49.304;8.428;2024-01-30T11:47:04;9.80;99.90
46037;DHT22;31769;49.304;8.428;2024-01-30T11:50:05;9.80;99.90
46037;DHT22;31769;49.304;8.428;2024-01-30T11:53:07;9.90;99.90
46037;DHT22;31769;49.304;8.428;2024-01-30T11:56:08;9.90;99.90
46037;DHT22;31769;49.304;8.428;2024-01-30T11:59:09;10.00;99.90
46037;DHT22;31769;49.304;8.428;2024-01-30T12:02:15;10.00;99.90
46037;DHT22;31769;49.304;8.428;2024-01-30T12:05:16;10.10;99.90
46037;DHT22;31769;49.304;8.428;2024-01-30T12:08:17;10.20;99.90
46037;DHT22;31769;49.304;8.428;2024-01-30T12:11:18;10.60;99.90
46037;DHT22;31769;49.304;8.428;2024-01-30T12:14:19;11.60;99.90
46037;DHT22;31769;49.304;8.428;2024-01-30T12:17:31;12.30;99.90
46037;DHT22;31769;49.304;8.428;2024-01-30T12:20:32;12.20;99.90
46037;DHT22;31769;49.304;8.428;2024-01-30T12:23:32;11.50;99.90
46037;DHT22;31769;49.304;8.428;2024-01-30T12:26:33;11.80;99.90
46037;DHT22;31769;49.304;8.428;2024-01-30T12:29:34;12.00;99.90
46037;DHT22;31769;49.304;8.428;2024-01-30T12:32:43;12.10;99.90
46037;DHT22;31769;49.304;8.428;2024-01-30T12:35:50;12.20;99.90
46037;DHT22;31769;49.304;8.428;2024-01-30T12:38:57;12.20;99.90
46037;DHT22;31769;49.304;8.428;2024-01-30T12:41:57;11.80;99.90
46037;DHT22;31769;49.304;8.428;2024-01-30T12:44:58;11.70;99.90
46037;DHT22;31769;49.304;8.428;2024-01-30T12:47:59;11.80;99.90
46037;DHT22;31769;49.304;8.428;2024-01-30T12:51:00;12.00;99.90
46037;DHT22;31769;49.304;8.428;2024-01-30T12:54:05;12.30;99.90
46037;DHT22;31769;49.304;8.428;2024-01-30T12:57:06;12.30;99.90
46037;DHT22;31769;49.304;8.428;2024-01-30T13:00:07;12.30;99.90
46037;DHT22;31769;49.304;8.428;2024-01-30T13:03:11;12.80;99.90
46037;DHT22;31769;49.304;8.428;2024-01-30T13:06:12;13.00;99.90
46037;DHT22;31769;49.304;8.428;2024-01-30T13:09:13;12.80;99.90
46037;DHT22;31769;49.304;8.428;2024-01-30T13:12:13;12.80;99.90
46037;DHT22;31769;49.304;8.428;2024-01-30T13:15:14;13.00;99.90
46037;DHT22;31769;49.304;8.428;2024-01-30T13:18:15;12.90;99.90
46037;DHT22;31769;49.304;8.428;2024-01-30T13:21:16;13.00;99.90
46037;DHT22;31769;49.304;8.428;2024-01-30T13:24:16;13.20;99.90
46037;DHT22;31769;49.304;8.428;2024-01-30T13:27:17;13.50;99.90
46037;DHT22;31769;49.304;8.428;2024-01-30T13:30:18;13.40;99.90
46037;DHT22;31769;49.304;8.428;2024-01-30T13:33:19;13.50;99.90
46037;DHT22;31769;49.304;8.428;2024-01-30T13:36:19;13.50;99.90
46037;DHT22;31769;49.304;8.428;2024-01-30T13:39:20;13.40;99.90
46037;DHT22;31769;49.304;8.428;2024-01-30T13:42:21;13.20;99.90
46037;DHT22;31769;49.304;8.428;2024-01-30T13:45:22;13.00;99.90
46037;DHT22;31769;49.304;8.428;2024-01-30T13:48:22;13.00;99.90
46037;DHT22;31769;49.304;8.428;2024-01-30T13:51:23;13.00;99.90
46037;DHT22;31769;49.304;8.428;2024-01-30T13:54:24;12.70;99.90
46037;DHT22;31769;49.304;8.428;2024-01-30T13:57:24;12.40;99.90
46037;DHT22;31769;49.304;8.428;2024-01-30T14:00:25;12.30;99.90
46037;DHT22;31769;49.304;8.428;2024-01-30T14:03:26;12.20;99.90
46037;DHT22;31769;49.304;8.428;2024-01-30T14:06:27;12.20;99.90
46037;DHT22;31769;49.304;8.428;2024-01-30T14:09:27;12.20;99.90
46037;DHT22;31769;49.304;8.428;2024-01-30T14:12:29;12.00;99.90
46037;DHT22;31769;49.304;8.428;2024-01-30T14:15:30;12.10;99.90
46037;DHT22;31769;49.304;8.428;2024-01-30T14:18:31;12.10;99.90
46037;DHT22;31769;49.304;8.428;2024-01-30T14:21:31;12.20;99.90
46037;DHT22;31769;49.304;8.428;2024-01-30T14:24:32;12.00;99.90
46037;DHT22;31769;49.304;8.428;2024-01-30T14:27:35;12.00;99.90
46037;DHT22;31769;49.304;8.428;2024-01-30T14:30:36;11.90;99.90
46037;DHT22;31769;49.304;8.428;2024-01-30T14:33:36;12.00;99.90
46037;DHT22;31769;49.304;8.428;2024-01-30T14:36:38;11.90;99.90
46037;DHT22;31769;49.304;8.428;2024-01-30T14:39:38;11.80;99.90
46037;DHT22;31769;49.304;8.428;2024-01-30T14:42:41;11.80;99.90
46037;DHT22;31769;49.304;8.428;2024-01-30T14:45:41;11.80;99.90
46037;DHT22;31769;49.304;8.428;2024-01-30T14:48:43;11.80;99.90
46037;DHT22;31769;49.304;8.428;2024-01-30T14:51:43;11.90;99.90
46037;DHT22;31769;49.304;8.428;2024-01-30T14:54:44;12.20;99.90
46037;DHT22;31769;49.304;8.428;2024-01-30T14:57:45;11.80;99.90
46037;DHT22;31769;49.304;8.428;2024-01-30T15:00:46;11.80;99.90
46037;DHT22;31769;49.304;8.428;2024-01-30T15:03:47;11.70;99.90
46037;DHT22;31769;49.304;8.428;2024-01-30T15:06:47;11.60;99.90
46037;DHT22;31769;49.304;8.428;2024-01-30T15:09:49;11.50;99.90
46037;DHT22;31769;49.304;8.428;2024-01-30T15:12:49;11.50;99.90
46037;DHT22;31769;49.304;8.428;2024-01-30T15:15:50;11.50;99.90
46037;DHT22;31769;49.304;8.428;2024-01-30T15:18:51;11.30;99.90
46037;DHT22;31769;49.304;8.428;2024-01-30T15:21:52;11.30;99.90
46037;DHT22;31769;49.304;8.428;2024-01-30T15:24:52;11.20;99.90
46037;DHT22;31769;49.304;8.428;2024-01-30T15:27:53;11.20;99.90
46037;DHT22;31769;49.304;8.428;2024-01-30T15:30:54;11.20;99.90
46037;DHT22;31769;49.304;8.428;2024-01-30T15:33:55;11.10;99.90
46037;DHT22;31769;49.304;8.428;2024-01-30T15:36:57;11.10;99.90
46037;DHT22;31769;49.304;8.428;2024-01-30T15:39:59;11.10;99.90
46037;DHT22;31769;49.304;8.428;2024-01-30T15:42:59;11.10;99.90
46037;DHT22;31769;49.304;8.428;2024-01-30T15:46:00;11.00;99.90
46037;DHT22;31769;49.304;8.428;2024-01-30T15:49:04;11.00;99.90
46037;DHT22;31769;49.304;8.428;2024-01-30T15:52:05;10.90;99.90
46037;DHT22;31769;49.304;8.428;2024-01-30T15:55:06;10.90;99.90
46037;DHT22;31769;49.304;8.428;2024-01-30T15:58:06;10.90;99.90
46037;DHT22;31769;49.304;8.428;2024-01-30T16:01:07;10.80;99.90
46037;DHT22;31769;49.304;8.428;2024-01-30T16:04:08;10.80;99.90
46037;DHT22;31769;49.304;8.428;2024-01-30T16:07:09;10.80;99.90
46037;DHT22;31769;49.304;8.428;2024-01-30T16:10:11;10.80;99.90
46037;DHT22;31769;49.304;8.428;2024-01-30T16:13:16;10.70;99.90
46037;DHT22;31769;49.304;8.428;2024-01-30T16:16:17;10.70;99.90
46037;DHT22;31769;49.304;8.428;2024-01-30T16:19:18;10.70;99.90
46037;DHT22;31769;49.304;8.428;2024-01-30T16:22:19;10.70;99.90
46037;DHT22;31769;49.304;8.428;2024-01-30T16:25:20;10.70;99.90
46037;DHT22;31769;49.304;8.428;2024-01-30T16:28:25;10.70;99.90
46037;DHT22;31769;49.304;8.428;2024-01-30T16:31:28;10.60;99.90
46037;DHT22;31769;49.304;8.428;2024-01-30T16:34:30;10.60;99.90
46037;DHT22;31769;49.304;8.428;2024-01-30T16:37:30;10.60;99.90
46037;DHT22;31769;49.304;8.428;2024-01-30T16:40:31;10.50;99.90
46037;DHT22;31769;49.304;8.428;2024-01-30T16:43:32;10.50;99.90
46037;DHT22;31769;49.304;8.428;2024-01-30T16:46:33;10.50;99.90
46037;DHT22;31769;49.304;8.428;2024-01-30T16:49:33;10.50;99.90
46037;DHT22;31769;49.304;8.428;2024-01-30T16:52:34;10.50;99.90
46037;DHT22;31769;49.304;8.428;2024-01-30T16:55:35;10.50;99.90
46037;DHT22;31769;49.304;8.428;2024-01-30T16:58:35;10.50;99.90
46037;DHT22;31769;49.304;8.428;2024-01-30T17:01:36;10.50;99.90
46037;DHT22;31769;49.304;8.428;2024-01-30T17:04:37;10.40;99.90
46037;DHT22;31769;49.304;8.428;2024-01-30T17:07:38;10.40;99.90
46037;DHT22;31769;49.304;8.428;2024-01-30T17:10:38;10.40;99.90
46037;DHT22;31769;49.304;8.428;2024-01-30T17:13:39;10.40;99.90
46037;DHT22;31769;49.304;8.428;2024-01-30T17:16:40;10.40;99.90
46037;DHT22;31769;49.304;8.428;2024-01-30T17:19:41;10.40;99.90
46037;DHT22;31769;49.304;8.428;2024-01-30T17:22:41;10.20;99.90
46037;DHT22;31769;49.304;8.428;2024-01-30T17:25:42;10.20;99.90
46037;DHT22;31769;49.304;8.428;2024-01-30T17:28:43;10.10;99.90
46037;DHT22;31769;49.304;8.428;2024-01-30T17:31:43;9.90;99.90
46037;DHT22;31769;49.304;8.428;2024-01-30T17:34:48;9.80;99.90
46037;DHT22;31769;49.304;8.428;2024-01-30T17:37:48;9.70;99.90
46037;DHT22;31769;49.304;8.428;2024-01-30T17:40:49;9.70;99.90
46037;DHT22;31769;49.304;8.428;2024-01-30T17:43:51;9.60;99.90
46037;DHT22;31769;49.304;8.428;2024-01-30T17:46:52;9.60;99.90
46037;DHT22;31769;49.304;8.428;2024-01-30T17:49:52;9.50;99.90
46037;DHT22;31769;49.304;8.428;2024-01-30T17:52:53;9.60;99.90
46037;DHT22;31769;49.304;8.428;2024-01-30T17:55:54;9.60;99.90
46037;DHT22;31769;49.304;8.428;2024-01-30T17:58:56;9.60;99.90
46037;DHT22;31769;49.304;8.428;2024-01-30T18:01:57;9.70;99.90
46037;DHT22;31769;49.304;8.428;2024-01-30T18:04:57;9.60;99.90
46037;DHT22;31769;49.304;8.428;2024-01-30T18:07:58;9.60;99.90
46037;DHT22;31769;49.304;8.428;2024-01-30T18:10:59;9.60;99.90
46037;DHT22;31769;49.304;8.428;2024-01-30T18:14:00;9.50;99.90
46037;DHT22;31769;49.304;8.428;2024-01-30T18:17:00;9.60;99.90
46037;DHT22;31769;49.304;8.428;2024-01-30T18:20:02;9.60;99.90
46037;DHT22;31769;49.304;8.428;2024-01-30T18:23:04;9.50;99.90
46037;DHT22;31769;49.304;8.428;2024-01-30T18:26:05;9.60;99.90
46037;DHT22;31769;49.304;8.428;2024-01-30T18:29:06;9.50;99.90
46037;DHT22;31769;49.304;8.428;2024-01-30T18:32:07;9.60;99.90
46037;DHT22;31769;49.304;8.428;2024-01-30T18:35:08;9.60;99.90
46037;DHT22;31769;49.304;8.428;2024-01-30T18:38:08;9.50;99.90
46037;DHT22;31769;49.304;8.428;2024-01-30T18:41:09;9.50;99.90
46037;DHT22;31769;49.304;8.428;2024-01-30T18:44:10;9.40;99.90
46037;DHT22;31769;49.304;8.428;2024-01-30T18:47:11;9.50;99.90
46037;DHT22;31769;49.304;8.428;2024-01-30T18:50:11;9.50;99.90
46037;DHT22;31769;49.304;8.428;2024-01-30T18:53:12;9.50;99.90
46037;DHT22;31769;49.304;8.428;2024-01-30T18:56:13;9.40;99.90
46037;DHT22;31769;49.304;8.428;2024-01-30T18:59:13;9.40;99.90
46037;DHT22;31769;49.304;8.428;2024-01-30T19:02:17;9.40;99.90
46037;DHT22;31769;49.304;8.428;2024-01-30T19:05:18;9.40;99.90
46037;DHT22;31769;49.304;8.428;2024-01-30T19:08:19;9.30;99.90
46037;DHT22;31769;49.304;8.428;2024-01-30T19:11:19;9.40;99.90
46037;DHT22;31769;49.304;8.428;2024-01-30T19:14:20;9.40;99.90
46037;DHT22;31769;49.304;8.428;2024-01-30T19:17:22;9.30;99.90
46037;DHT22;31769;49.304;8.428;2024-01-30T19:20:24;9.30;99.90
46037;DHT22;31769;49.304;8.428;2024-01-30T19:23:25;9.20;99.90
46037;DHT22;31769;49.304;8.428;2024-01-30T19:26:26;9.20;99.90
46037;DHT22;31769;49.304;8.428;2024-01-30T19:29:26;9.20;99.90
46037;DHT22;31769;49.304;8.428;2024-01-30T19:32:27;9.20;99.90
46037;DHT22;31769;49.304;8.428;2024-01-30T19:35:28;9.20;99.90
46037;DHT22;31769;49.304;8.428;2024-01-30T19:38:28;9.20;99.90